Meteo Giornale » Osservazioni meteo Gran Bretagna » Leuchars

ore: 14:50 - Osservazioni Meteo Leuchars
Lat. 56° 23' N Lon. 2° 52' W Alt. 12 metri s.l.m.

molto_nuvoloso Europe/London

11 °C

Molto Nuvoloso

Temp. 24 Ore

7 °C

15 °C

Sud

14.8 Km/h

Dew point 9 °C

Umidità 87 %

Visibilità  10 Km

Il sole sorge alle ore 07:07

Il sole tramonta alle ore 18:56

Data e Ora Cielo e Fenomeni T °C DP °C Um. % Pres. hPa Vis. km Vento km/h
Oggi h: 14:50 molto_nuvoloso Molto Nuvoloso 11 9 87 1008 10 S 14.8
Oggi h: 14:22 coperto_pioggia Pioggia 11 9 87 1008 10 S 14.8
Oggi h: 13:50 coperto_pioggia Pioggia 11 9 87 1008 7 S 20.3
Oggi h: 12:50 nuvoloso_piovaschi Debole Rovescio di Pioggia 13 8 71 1008 10 S 24
Oggi h: 11:50 molto_nuvoloso Molto Nuvoloso 13 8 71 1008 10 S 20.3
Oggi h: 10:50 molto_nuvoloso Molto Nuvoloso 12 8 76 1009 10 S/SO 16.7
Oggi h: 09:50 sereno Sereno 12 8 76 1009 10 S 16.7
Oggi h: 08:50 poco_nuvoloso Poco Nuvoloso 10 8 87 1008 10 N 3.7
Oggi h: 07:50 poco_nuvoloso Poco Nuvoloso 7 6 93 1008 10 N 1.8
Oggi h: 06:50 poco_nuvoloso Poco Nuvoloso 9 7 87 1008 10 S/SO 11.1
Oggi h: 05:50 sereno Sereno 9 6 81 1008 10 O/SO 9.3
Oggi h: 04:50 nuvoloso Nuvoloso 8 7 93 1008 10 N 5.5
Oggi h: 03:50 molto_nuvoloso Molto Nuvoloso 8 7 93 1008 10 N 3.7
Oggi h: 02:50 nuvoloso Nuvoloso 7 5 87 1008 10 N 3.7
Oggi h: 01:50 poco_nuvoloso Poco Nuvoloso 7 5 87 1008 10 N 1.8
Oggi h: 00:50 sereno Sereno 9 6 81 1007 10 N 3.7
Ieri h: 23:50 sereno Sereno 9 5 75 1007 10 SO 11.1
Ieri h: 22:50 sereno Sereno 9 6 81 1006 10 SO 14.8
Ieri h: 21:50 sereno Sereno 9 6 81 1006 10 O/SO 14.8
Ieri h: 21:20 sereno Sereno 9 7 87 1005 10 SO 18.5
Ieri h: 20:50 sereno Sereno 9 6 81 1005 10 SO 13
Ieri h: 20:26 sereno Sereno 10 6 76 1005 10 SO 18.5
Ieri h: 19:50 sereno Sereno 11 6 71 1004 10 SO 20.3
Ieri h: 18:50 poco_nuvoloso Poco Nuvoloso 11 7 76 1003 10 O/SO 25.9
Ieri h: 18:23 sereno Sereno 12 7 71 1002 10 O/SO 25.9
Ieri h: 17:50 nuvoloso Nuvoloso 13 7 66 1002 10 O/SO 33.3
Ieri h: 17:20 nuvoloso Nuvoloso 13 8 71 1001 10 O/SO 27.8
Ieri h: 16:50 poco_nuvoloso Poco Nuvoloso 14 8 67 1001 10 O/SO 33.3
Ieri h: 16:21 nuvoloso_piovaschi Rovescio di Pioggia 13 8 71 1001 5 O 27.8
Ieri h: 15:50 nuvoloso Rovescio nelle Vicinanze 15 9 67 1000 10 O/SO 37